sensor_id;sensor_type;location;lat;lon;timestamp;P1;durP1;ratioP1;P2;durP2;ratioP2
66175;SDS011;52977;44.816;20.538;2023-03-23T00:01:20;17.83;;;10.27;;
66175;SDS011;52977;44.816;20.538;2023-03-23T00:03:50;16.90;;;10.02;;
66175;SDS011;52977;44.816;20.538;2023-03-23T00:06:18;16.58;;;10.00;;
66175;SDS011;52977;44.816;20.538;2023-03-23T00:08:47;16.00;;;9.20;;
66175;SDS011;52977;44.816;20.538;2023-03-23T00:11:17;17.23;;;9.35;;
66175;SDS011;52977;44.816;20.538;2023-03-23T00:13:46;18.23;;;8.23;;
66175;SDS011;52977;44.816;20.538;2023-03-23T00:16:18;18.10;;;8.63;;
66175;SDS011;52977;44.816;20.538;2023-03-23T00:18:55;14.55;;;8.30;;
66175;SDS011;52977;44.816;20.538;2023-03-23T00:21:23;17.75;;;9.25;;
66175;SDS011;52977;44.816;20.538;2023-03-23T00:23:50;17.23;;;9.23;;
66175;SDS011;52977;44.816;20.538;2023-03-23T00:26:16;17.52;;;10.35;;
66175;SDS011;52977;44.816;20.538;2023-03-23T00:28:43;19.33;;;10.18;;
66175;SDS011;52977;44.816;20.538;2023-03-23T00:31:12;23.25;;;11.38;;
66175;SDS011;52977;44.816;20.538;2023-03-23T00:33:39;23.58;;;11.48;;
66175;SDS011;52977;44.816;20.538;2023-03-23T00:36:09;26.50;;;12.55;;
66175;SDS011;52977;44.816;20.538;2023-03-23T00:38:37;25.58;;;12.40;;
66175;SDS011;52977;44.816;20.538;2023-03-23T00:41:04;24.33;;;12.65;;
66175;SDS011;52977;44.816;20.538;2023-03-23T00:43:32;25.95;;;13.52;;
66175;SDS011;52977;44.816;20.538;2023-03-23T00:46:01;27.92;;;14.00;;
66175;SDS011;52977;44.816;20.538;2023-03-23T00:48:28;26.92;;;13.38;;
66175;SDS011;52977;44.816;20.538;2023-03-23T00:50:55;24.98;;;13.93;;
66175;SDS011;52977;44.816;20.538;2023-03-23T00:53:22;26.50;;;13.27;;
66175;SDS011;52977;44.816;20.538;2023-03-23T00:55:48;23.65;;;13.35;;
66175;SDS011;52977;44.816;20.538;2023-03-23T00:58:15;25.45;;;13.73;;
66175;SDS011;52977;44.816;20.538;2023-03-23T01:00:41;27.33;;;13.30;;
66175;SDS011;52977;44.816;20.538;2023-03-23T01:03:08;25.73;;;13.43;;
66175;SDS011;52977;44.816;20.538;2023-03-23T01:05:38;24.75;;;13.32;;
66175;SDS011;52977;44.816;20.538;2023-03-23T01:08:05;31.40;;;14.50;;
66175;SDS011;52977;44.816;20.538;2023-03-23T01:10:31;28.05;;;14.20;;
66175;SDS011;52977;44.816;20.538;2023-03-23T01:13:01;38.45;;;16.23;;
66175;SDS011;52977;44.816;20.538;2023-03-23T01:15:27;38.47;;;17.40;;
66175;SDS011;52977;44.816;20.538;2023-03-23T01:17:54;37.83;;;18.98;;
66175;SDS011;52977;44.816;20.538;2023-03-23T01:20:20;37.83;;;18.08;;
66175;SDS011;52977;44.816;20.538;2023-03-23T01:22:45;33.13;;;17.17;;
66175;SDS011;52977;44.816;20.538;2023-03-23T01:25:12;32.95;;;16.60;;
66175;SDS011;52977;44.816;20.538;2023-03-23T01:27:38;36.13;;;18.27;;
66175;SDS011;52977;44.816;20.538;2023-03-23T01:30:05;40.72;;;19.17;;
66175;SDS011;52977;44.816;20.538;2023-03-23T01:32:33;39.15;;;19.13;;
66175;SDS011;52977;44.816;20.538;2023-03-23T01:34:59;43.40;;;20.33;;
66175;SDS011;52977;44.816;20.538;2023-03-23T01:37:25;39.03;;;19.42;;
66175;SDS011;52977;44.816;20.538;2023-03-23T01:39:54;43.35;;;19.77;;
66175;SDS011;52977;44.816;20.538;2023-03-23T01:42:30;38.33;;;19.27;;
66175;SDS011;52977;44.816;20.538;2023-03-23T01:47:52;37.88;;;17.85;;
66175;SDS011;52977;44.816;20.538;2023-03-23T01:50:29;35.47;;;17.88;;
66175;SDS011;52977;44.816;20.538;2023-03-23T01:53:01;31.90;;;16.23;;
66175;SDS011;52977;44.816;20.538;2023-03-23T01:55:34;39.17;;;17.30;;
66175;SDS011;52977;44.816;20.538;2023-03-23T01:58:04;36.45;;;17.00;;
66175;SDS011;52977;44.816;20.538;2023-03-23T02:00:31;34.38;;;17.10;;
66175;SDS011;52977;44.816;20.538;2023-03-23T02:02:58;38.72;;;16.63;;
66175;SDS011;52977;44.816;20.538;2023-03-23T02:05:47;31.48;;;16.30;;
66175;SDS011;52977;44.816;20.538;2023-03-23T02:08:18;33.42;;;15.68;;
66175;SDS011;52977;44.816;20.538;2023-03-23T02:10:46;33.28;;;16.00;;
66175;SDS011;52977;44.816;20.538;2023-03-23T02:13:12;31.23;;;15.80;;
66175;SDS011;52977;44.816;20.538;2023-03-23T02:15:47;30.60;;;14.88;;
66175;SDS011;52977;44.816;20.538;2023-03-23T02:35:10;34.63;;;16.47;;
66175;SDS011;52977;44.816;20.538;2023-03-23T02:40:14;32.55;;;15.95;;
66175;SDS011;52977;44.816;20.538;2023-03-23T02:42:48;29.13;;;15.70;;
66175;SDS011;52977;44.816;20.538;2023-03-23T02:45:17;31.23;;;16.05;;
66175;SDS011;52977;44.816;20.538;2023-03-23T02:47:46;25.80;;;14.40;;
66175;SDS011;52977;44.816;20.538;2023-03-23T02:50:16;28.50;;;15.18;;
66175;SDS011;52977;44.816;20.538;2023-03-23T02:52:48;31.35;;;15.77;;
66175;SDS011;52977;44.816;20.538;2023-03-23T02:55:16;29.30;;;15.45;;
66175;SDS011;52977;44.816;20.538;2023-03-23T02:57:45;31.27;;;15.35;;
66175;SDS011;52977;44.816;20.538;2023-03-23T03:00:15;28.35;;;14.73;;
66175;SDS011;52977;44.816;20.538;2023-03-23T03:02:44;28.52;;;14.63;;
66175;SDS011;52977;44.816;20.538;2023-03-23T03:05:36;28.02;;;14.93;;
66175;SDS011;52977;44.816;20.538;2023-03-23T03:08:06;25.90;;;14.25;;
66175;SDS011;52977;44.816;20.538;2023-03-23T03:10:50;29.65;;;15.25;;
66175;SDS011;52977;44.816;20.538;2023-03-23T03:19:20;28.65;;;14.82;;
66175;SDS011;52977;44.816;20.538;2023-03-23T03:22:07;26.33;;;13.57;;
66175;SDS011;52977;44.816;20.538;2023-03-23T03:24:39;28.20;;;13.85;;
66175;SDS011;52977;44.816;20.538;2023-03-23T03:27:15;29.75;;;13.70;;
66175;SDS011;52977;44.816;20.538;2023-03-23T03:29:47;27.13;;;13.48;;
66175;SDS011;52977;44.816;20.538;2023-03-23T03:32:20;27.58;;;13.82;;
66175;SDS011;52977;44.816;20.538;2023-03-23T03:34:50;26.33;;;13.68;;
66175;SDS011;52977;44.816;20.538;2023-03-23T03:37:18;24.45;;;14.10;;
66175;SDS011;52977;44.816;20.538;2023-03-23T03:39:48;30.08;;;14.23;;
66175;SDS011;52977;44.816;20.538;2023-03-23T03:42:14;27.25;;;14.40;;
66175;SDS011;52977;44.816;20.538;2023-03-23T03:44:40;29.15;;;15.23;;
66175;SDS011;52977;44.816;20.538;2023-03-23T03:47:06;33.00;;;14.65;;
66175;SDS011;52977;44.816;20.538;2023-03-23T03:49:32;32.80;;;16.23;;
66175;SDS011;52977;44.816;20.538;2023-03-23T03:51:59;32.65;;;15.75;;
66175;SDS011;52977;44.816;20.538;2023-03-23T03:54:35;31.85;;;16.05;;
66175;SDS011;52977;44.816;20.538;2023-03-23T03:57:02;33.40;;;16.58;;
66175;SDS011;52977;44.816;20.538;2023-03-23T03:59:49;32.28;;;15.88;;
66175;SDS011;52977;44.816;20.538;2023-03-23T04:02:40;31.05;;;15.48;;
66175;SDS011;52977;44.816;20.538;2023-03-23T04:05:15;34.13;;;16.33;;
66175;SDS011;52977;44.816;20.538;2023-03-23T04:07:44;27.65;;;14.70;;
66175;SDS011;52977;44.816;20.538;2023-03-23T04:10:11;26.95;;;14.07;;
66175;SDS011;52977;44.816;20.538;2023-03-23T04:12:41;27.27;;;13.20;;
66175;SDS011;52977;44.816;20.538;2023-03-23T04:15:26;24.52;;;13.10;;
66175;SDS011;52977;44.816;20.538;2023-03-23T04:17:52;25.92;;;13.23;;
66175;SDS011;52977;44.816;20.538;2023-03-23T04:20:19;26.08;;;13.05;;
66175;SDS011;52977;44.816;20.538;2023-03-23T04:22:49;25.95;;;12.85;;
66175;SDS011;52977;44.816;20.538;2023-03-23T04:25:16;20.08;;;11.35;;
66175;SDS011;52977;44.816;20.538;2023-03-23T04:27:48;20.08;;;11.27;;
66175;SDS011;52977;44.816;20.538;2023-03-23T04:30:24;22.85;;;11.48;;
66175;SDS011;52977;44.816;20.538;2023-03-23T04:33:19;20.85;;;11.02;;
66175;SDS011;52977;44.816;20.538;2023-03-23T04:35:52;22.33;;;11.70;;
66175;SDS011;52977;44.816;20.538;2023-03-23T04:38:31;19.50;;;10.80;;
66175;SDS011;52977;44.816;20.538;2023-03-23T04:41:07;21.35;;;11.40;;
66175;SDS011;52977;44.816;20.538;2023-03-23T04:43:41;21.17;;;11.95;;
66175;SDS011;52977;44.816;20.538;2023-03-23T04:46:25;27.23;;;13.98;;
66175;SDS011;52977;44.816;20.538;2023-03-23T04:48:58;25.95;;;14.25;;
66175;SDS011;52977;44.816;20.538;2023-03-23T04:51:29;27.40;;;14.27;;
66175;SDS011;52977;44.816;20.538;2023-03-23T04:54:08;31.58;;;16.27;;
66175;SDS011;52977;44.816;20.538;2023-03-23T04:56:36;29.42;;;15.00;;
66175;SDS011;52977;44.816;20.538;2023-03-23T04:59:08;30.13;;;15.75;;
66175;SDS011;52977;44.816;20.538;2023-03-23T05:01:40;28.40;;;13.88;;
66175;SDS011;52977;44.816;20.538;2023-03-23T05:04:19;28.17;;;14.90;;
66175;SDS011;52977;44.816;20.538;2023-03-23T05:06:56;29.23;;;14.57;;
66175;SDS011;52977;44.816;20.538;2023-03-23T05:09:26;27.45;;;15.15;;
66175;SDS011;52977;44.816;20.538;2023-03-23T05:11:53;28.92;;;15.10;;
66175;SDS011;52977;44.816;20.538;2023-03-23T05:14:19;30.27;;;15.60;;
66175;SDS011;52977;44.816;20.538;2023-03-23T05:16:54;29.67;;;15.18;;
66175;SDS011;52977;44.816;20.538;2023-03-23T05:19:21;33.10;;;16.25;;
66175;SDS011;52977;44.816;20.538;2023-03-23T05:21:48;38.25;;;17.30;;
66175;SDS011;52977;44.816;20.538;2023-03-23T05:24:14;32.80;;;16.80;;
66175;SDS011;52977;44.816;20.538;2023-03-23T05:26:40;33.88;;;18.10;;
66175;SDS011;52977;44.816;20.538;2023-03-23T05:29:15;33.35;;;17.10;;
66175;SDS011;52977;44.816;20.538;2023-03-23T05:31:52;34.97;;;17.67;;
66175;SDS011;52977;44.816;20.538;2023-03-23T05:34:19;36.97;;;17.90;;
66175;SDS011;52977;44.816;20.538;2023-03-23T05:36:52;36.40;;;17.45;;
66175;SDS011;52977;44.816;20.538;2023-03-23T05:39:32;32.58;;;17.00;;
66175;SDS011;52977;44.816;20.538;2023-03-23T05:42:11;34.70;;;17.75;;
66175;SDS011;52977;44.816;20.538;2023-03-23T05:44:50;38.10;;;18.20;;
66175;SDS011;52977;44.816;20.538;2023-03-23T05:47:16;34.92;;;17.85;;
66175;SDS011;52977;44.816;20.538;2023-03-23T05:49:49;39.88;;;18.05;;
66175;SDS011;52977;44.816;20.538;2023-03-23T05:52:18;34.05;;;16.98;;
66175;SDS011;52977;44.816;20.538;2023-03-23T05:54:45;31.63;;;16.65;;
66175;SDS011;52977;44.816;20.538;2023-03-23T05:57:12;34.63;;;17.38;;
66175;SDS011;52977;44.816;20.538;2023-03-23T05:59:57;32.22;;;16.55;;
66175;SDS011;52977;44.816;20.538;2023-03-23T06:02:25;33.22;;;17.05;;
66175;SDS011;52977;44.816;20.538;2023-03-23T06:04:55;38.50;;;16.77;;
66175;SDS011;52977;44.816;20.538;2023-03-23T06:07:29;33.05;;;16.88;;
66175;SDS011;52977;44.816;20.538;2023-03-23T06:10:02;38.92;;;16.60;;
66175;SDS011;52977;44.816;20.538;2023-03-23T06:12:37;38.20;;;17.48;;
66175;SDS011;52977;44.816;20.538;2023-03-23T06:15:13;34.33;;;16.92;;
66175;SDS011;52977;44.816;20.538;2023-03-23T06:18:03;36.20;;;16.55;;
66175;SDS011;52977;44.816;20.538;2023-03-23T06:20:37;36.15;;;17.27;;
66175;SDS011;52977;44.816;20.538;2023-03-23T06:23:17;33.03;;;16.02;;
66175;SDS011;52977;44.816;20.538;2023-03-23T06:25:43;39.33;;;17.27;;
66175;SDS011;52977;44.816;20.538;2023-03-23T06:28:10;32.42;;;17.05;;
66175;SDS011;52977;44.816;20.538;2023-03-23T06:30:42;34.67;;;16.90;;
66175;SDS011;52977;44.816;20.538;2023-03-23T06:33:09;31.08;;;17.23;;
66175;SDS011;52977;44.816;20.538;2023-03-23T06:35:55;36.85;;;17.15;;
66175;SDS011;52977;44.816;20.538;2023-03-23T06:38:47;34.83;;;16.65;;
66175;SDS011;52977;44.816;20.538;2023-03-23T06:41:15;33.78;;;16.27;;
66175;SDS011;52977;44.816;20.538;2023-03-23T06:43:41;33.42;;;16.58;;
66175;SDS011;52977;44.816;20.538;2023-03-23T06:46:16;30.65;;;16.65;;
66175;SDS011;52977;44.816;20.538;2023-03-23T06:48:42;32.67;;;16.50;;
66175;SDS011;52977;44.816;20.538;2023-03-23T06:51:12;31.55;;;15.73;;
66175;SDS011;52977;44.816;20.538;2023-03-23T06:53:41;33.55;;;16.58;;
66175;SDS011;52977;44.816;20.538;2023-03-23T06:56:11;39.58;;;19.40;;
66175;SDS011;52977;44.816;20.538;2023-03-23T06:58:40;41.47;;;19.25;;
66175;SDS011;52977;44.816;20.538;2023-03-23T07:01:11;38.35;;;18.45;;
66175;SDS011;52977;44.816;20.538;2023-03-23T07:03:43;35.20;;;17.50;;
66175;SDS011;52977;44.816;20.538;2023-03-23T07:06:11;36.13;;;17.73;;
66175;SDS011;52977;44.816;20.538;2023-03-23T07:08:46;35.53;;;17.38;;
66175;SDS011;52977;44.816;20.538;2023-03-23T07:13:43;33.42;;;15.85;;
66175;SDS011;52977;44.816;20.538;2023-03-23T07:16:10;37.13;;;17.08;;
66175;SDS011;52977;44.816;20.538;2023-03-23T07:18:37;35.35;;;17.17;;
66175;SDS011;52977;44.816;20.538;2023-03-23T07:21:05;30.63;;;16.25;;
66175;SDS011;52977;44.816;20.538;2023-03-23T07:23:31;35.78;;;16.77;;
66175;SDS011;52977;44.816;20.538;2023-03-23T07:26:05;33.33;;;16.70;;
66175;SDS011;52977;44.816;20.538;2023-03-23T07:28:38;35.88;;;16.15;;
66175;SDS011;52977;44.816;20.538;2023-03-23T07:31:24;36.58;;;18.15;;
66175;SDS011;52977;44.816;20.538;2023-03-23T07:33:50;28.63;;;16.30;;
66175;SDS011;52977;44.816;20.538;2023-03-23T07:36:16;32.47;;;17.08;;
66175;SDS011;52977;44.816;20.538;2023-03-23T07:38:42;31.45;;;17.35;;
66175;SDS011;52977;44.816;20.538;2023-03-23T07:41:09;33.80;;;18.30;;
66175;SDS011;52977;44.816;20.538;2023-03-23T07:43:36;34.05;;;17.55;;
66175;SDS011;52977;44.816;20.538;2023-03-23T07:46:08;30.75;;;16.35;;
66175;SDS011;52977;44.816;20.538;2023-03-23T07:48:44;33.10;;;17.10;;
66175;SDS011;52977;44.816;20.538;2023-03-23T07:51:10;33.35;;;16.70;;
66175;SDS011;52977;44.816;20.538;2023-03-23T07:53:36;31.30;;;16.70;;
66175;SDS011;52977;44.816;20.538;2023-03-23T07:56:18;32.20;;;16.05;;
66175;SDS011;52977;44.816;20.538;2023-03-23T07:59:07;29.33;;;14.13;;
66175;SDS011;52977;44.816;20.538;2023-03-23T08:01:36;27.48;;;13.48;;
66175;SDS011;52977;44.816;20.538;2023-03-23T08:04:20;24.33;;;12.90;;
66175;SDS011;52977;44.816;20.538;2023-03-23T08:07:04;22.48;;;12.05;;
66175;SDS011;52977;44.816;20.538;2023-03-23T08:09:54;22.95;;;12.32;;
66175;SDS011;52977;44.816;20.538;2023-03-23T08:12:41;21.33;;;12.70;;
66175;SDS011;52977;44.816;20.538;2023-03-23T08:15:26;25.50;;;13.57;;
66175;SDS011;52977;44.816;20.538;2023-03-23T08:18:22;25.15;;;13.75;;
66175;SDS011;52977;44.816;20.538;2023-03-23T08:20:54;26.23;;;14.88;;
66175;SDS011;52977;44.816;20.538;2023-03-23T08:23:50;29.65;;;14.32;;
66175;SDS011;52977;44.816;20.538;2023-03-23T08:26:27;26.55;;;13.57;;
66175;SDS011;52977;44.816;20.538;2023-03-23T08:29:11;28.00;;;14.02;;
66175;SDS011;52977;44.816;20.538;2023-03-23T08:31:57;25.73;;;14.48;;
66175;SDS011;52977;44.816;20.538;2023-03-23T08:34:39;26.27;;;13.65;;
66175;SDS011;52977;44.816;20.538;2023-03-23T08:37:28;22.98;;;13.25;;
66175;SDS011;52977;44.816;20.538;2023-03-23T08:40:13;25.60;;;13.15;;
66175;SDS011;52977;44.816;20.538;2023-03-23T08:42:52;23.50;;;12.93;;
66175;SDS011;52977;44.816;20.538;2023-03-23T08:45:37;21.13;;;11.10;;
66175;SDS011;52977;44.816;20.538;2023-03-23T08:48:03;25.13;;;13.18;;
66175;SDS011;52977;44.816;20.538;2023-03-23T08:50:49;23.17;;;11.40;;
66175;SDS011;52977;44.816;20.538;2023-03-23T08:53:37;18.63;;;10.35;;
66175;SDS011;52977;44.816;20.538;2023-03-23T08:56:25;24.48;;;12.18;;
66175;SDS011;52977;44.816;20.538;2023-03-23T08:59:18;21.80;;;11.88;;
66175;SDS011;52977;44.816;20.538;2023-03-23T09:02:00;25.33;;;14.35;;
66175;SDS011;52977;44.816;20.538;2023-03-23T09:04:41;23.48;;;12.80;;
66175;SDS011;52977;44.816;20.538;2023-03-23T09:07:46;22.98;;;12.73;;
66175;SDS011;52977;44.816;20.538;2023-03-23T09:10:14;22.50;;;12.15;;
66175;SDS011;52977;44.816;20.538;2023-03-23T09:12:41;20.67;;;11.48;;
66175;SDS011;52977;44.816;20.538;2023-03-23T09:15:10;23.60;;;12.35;;
66175;SDS011;52977;44.816;20.538;2023-03-23T09:17:39;21.05;;;11.52;;
66175;SDS011;52977;44.816;20.538;2023-03-23T09:20:08;21.10;;;11.98;;
66175;SDS011;52977;44.816;20.538;2023-03-23T09:22:40;20.92;;;10.90;;
66175;SDS011;52977;44.816;20.538;2023-03-23T09:25:08;23.58;;;11.57;;
66175;SDS011;52977;44.816;20.538;2023-03-23T09:27:36;20.20;;;10.40;;
66175;SDS011;52977;44.816;20.538;2023-03-23T09:30:05;18.70;;;10.43;;
66175;SDS011;52977;44.816;20.538;2023-03-23T09:32:34;20.35;;;10.43;;
66175;SDS011;52977;44.816;20.538;2023-03-23T09:35:04;17.37;;;10.00;;
66175;SDS011;52977;44.816;20.538;2023-03-23T09:37:35;17.42;;;8.52;;
66175;SDS011;52977;44.816;20.538;2023-03-23T09:40:03;17.42;;;8.05;;
66175;SDS011;52977;44.816;20.538;2023-03-23T09:52:44;15.20;;;7.90;;
66175;SDS011;52977;44.816;20.538;2023-03-23T09:55:12;13.93;;;7.43;;
66175;SDS011;52977;44.816;20.538;2023-03-23T09:57:44;14.50;;;6.93;;
66175;SDS011;52977;44.816;20.538;2023-03-23T10:00:37;13.80;;;6.93;;
66175;SDS011;52977;44.816;20.538;2023-03-23T10:03:14;11.30;;;6.53;;
66175;SDS011;52977;44.816;20.538;2023-03-23T10:05:53;12.32;;;7.47;;
66175;SDS011;52977;44.816;20.538;2023-03-23T10:08:22;12.07;;;6.60;;
66175;SDS011;52977;44.816;20.538;2023-03-23T10:11:03;12.10;;;6.70;;
66175;SDS011;52977;44.816;20.538;2023-03-23T10:14:15;13.73;;;5.90;;
66175;SDS011;52977;44.816;20.538;2023-03-23T10:16:47;8.93;;;5.72;;
66175;SDS011;52977;44.816;20.538;2023-03-23T10:19:46;12.93;;;6.18;;
66175;SDS011;52977;44.816;20.538;2023-03-23T10:22:18;10.25;;;6.15;;
66175;SDS011;52977;44.816;20.538;2023-03-23T10:24:54;10.40;;;6.20;;
66175;SDS011;52977;44.816;20.538;2023-03-23T10:30:46;10.27;;;4.82;;
66175;SDS011;52977;44.816;20.538;2023-03-23T10:39:13;13.77;;;8.10;;
66175;SDS011;52977;44.816;20.538;2023-03-23T10:41:43;13.95;;;6.00;;
66175;SDS011;52977;44.816;20.538;2023-03-23T10:44:17;8.88;;;5.53;;
66175;SDS011;52977;44.816;20.538;2023-03-23T10:49:22;10.02;;;5.88;;
66175;SDS011;52977;44.816;20.538;2023-03-23T10:51:59;13.13;;;5.38;;
66175;SDS011;52977;44.816;20.538;2023-03-23T10:54:46;8.82;;;5.53;;
66175;SDS011;52977;44.816;20.538;2023-03-23T10:57:21;12.15;;;5.40;;
66175;SDS011;52977;44.816;20.538;2023-03-23T11:00:02;13.88;;;5.32;;
66175;SDS011;52977;44.816;20.538;2023-03-23T11:02:41;9.77;;;5.70;;
66175;SDS011;52977;44.816;20.538;2023-03-23T11:05:21;11.60;;;5.53;;
66175;SDS011;52977;44.816;20.538;2023-03-23T11:07:52;9.60;;;5.70;;
66175;SDS011;52977;44.816;20.538;2023-03-23T11:10:24;9.52;;;5.65;;
66175;SDS011;52977;44.816;20.538;2023-03-23T11:13:00;11.35;;;6.50;;
66175;SDS011;52977;44.816;20.538;2023-03-23T11:15:30;9.88;;;5.70;;
66175;SDS011;52977;44.816;20.538;2023-03-23T11:18:00;12.10;;;5.40;;
66175;SDS011;52977;44.816;20.538;2023-03-23T11:20:26;15.00;;;6.35;;
66175;SDS011;52977;44.816;20.538;2023-03-23T11:22:54;11.82;;;6.18;;
66175;SDS011;52977;44.816;20.538;2023-03-23T11:25:21;12.52;;;6.03;;
66175;SDS011;52977;44.816;20.538;2023-03-23T11:27:48;8.60;;;5.25;;
66175;SDS011;52977;44.816;20.538;2023-03-23T11:32:53;10.27;;;5.80;;
66175;SDS011;52977;44.816;20.538;2023-03-23T11:35:22;8.75;;;5.35;;
66175;SDS011;52977;44.816;20.538;2023-03-23T11:37:53;9.00;;;5.95;;
66175;SDS011;52977;44.816;20.538;2023-03-23T11:40:25;11.40;;;5.97;;
66175;SDS011;52977;44.816;20.538;2023-03-23T11:43:01;10.88;;;6.43;;
66175;SDS011;52977;44.816;20.538;2023-03-23T11:45:39;9.60;;;6.05;;
66175;SDS011;52977;44.816;20.538;2023-03-23T11:51:00;9.93;;;5.80;;
66175;SDS011;52977;44.816;20.538;2023-03-23T11:53:46;11.40;;;6.57;;
66175;SDS011;52977;44.816;20.538;2023-03-23T11:58:51;12.57;;;6.18;;
66175;SDS011;52977;44.816;20.538;2023-03-23T12:04:17;9.05;;;5.30;;
66175;SDS011;52977;44.816;20.538;2023-03-23T12:15:07;10.60;;;5.63;;
66175;SDS011;52977;44.816;20.538;2023-03-23T12:18:00;11.57;;;6.15;;
66175;SDS011;52977;44.816;20.538;2023-03-23T12:26:52;13.88;;;6.47;;
66175;SDS011;52977;44.816;20.538;2023-03-23T12:37:22;9.93;;;5.80;;
66175;SDS011;52977;44.816;20.538;2023-03-23T12:42:59;9.50;;;5.80;;
66175;SDS011;52977;44.816;20.538;2023-03-23T12:48:21;8.43;;;5.20;;
66175;SDS011;52977;44.816;20.538;2023-03-23T12:56:33;9.40;;;5.70;;
66175;SDS011;52977;44.816;20.538;2023-03-23T12:59:23;9.93;;;5.10;;
66175;SDS011;52977;44.816;20.538;2023-03-23T13:01:59;8.75;;;5.47;;
66175;SDS011;52977;44.816;20.538;2023-03-23T13:04:35;8.57;;;5.47;;
66175;SDS011;52977;44.816;20.538;2023-03-23T13:07:05;11.32;;;5.28;;
66175;SDS011;52977;44.816;20.538;2023-03-23T13:09:45;8.90;;;5.22;;
66175;SDS011;52977;44.816;20.538;2023-03-23T13:12:15;10.88;;;5.45;;
66175;SDS011;52977;44.816;20.538;2023-03-23T13:20:05;9.60;;;5.47;;
66175;SDS011;52977;44.816;20.538;2023-03-23T13:22:59;8.85;;;5.50;;
66175;SDS011;52977;44.816;20.538;2023-03-23T13:25:43;11.18;;;5.43;;
66175;SDS011;52977;44.816;20.538;2023-03-23T13:28:26;8.43;;;5.15;;
66175;SDS011;52977;44.816;20.538;2023-03-23T13:30:55;10.50;;;5.32;;
66175;SDS011;52977;44.816;20.538;2023-03-23T13:33:30;10.88;;;5.43;;
66175;SDS011;52977;44.816;20.538;2023-03-23T13:36:02;8.77;;;5.50;;
66175;SDS011;52977;44.816;20.538;2023-03-23T13:38:47;8.13;;;4.82;;
66175;SDS011;52977;44.816;20.538;2023-03-23T13:41:16;7.88;;;4.57;;
66175;SDS011;52977;44.816;20.538;2023-03-23T13:43:45;10.07;;;5.45;;
66175;SDS011;52977;44.816;20.538;2023-03-23T13:46:22;8.52;;;4.82;;
66175;SDS011;52977;44.816;20.538;2023-03-23T13:49:44;11.80;;;5.32;;
66175;SDS011;52977;44.816;20.538;2023-03-23T13:56:47;7.53;;;4.85;;
66175;SDS011;52977;44.816;20.538;2023-03-23T13:59:15;10.05;;;5.13;;
66175;SDS011;52977;44.816;20.538;2023-03-23T14:01:53;7.82;;;5.18;;
66175;SDS011;52977;44.816;20.538;2023-03-23T14:04:20;11.45;;;5.47;;
66175;SDS011;52977;44.816;20.538;2023-03-23T14:06:47;8.77;;;4.63;;
66175;SDS011;52977;44.816;20.538;2023-03-23T14:14:32;8.48;;;4.72;;
66175;SDS011;52977;44.816;20.538;2023-03-23T14:17:05;9.32;;;4.45;;
66175;SDS011;52977;44.816;20.538;2023-03-23T14:19:37;8.52;;;4.97;;
66175;SDS011;52977;44.816;20.538;2023-03-23T14:22:04;7.53;;;4.30;;
66175;SDS011;52977;44.816;20.538;2023-03-23T14:24:42;10.27;;;4.47;;
66175;SDS011;52977;44.816;20.538;2023-03-23T14:27:15;10.57;;;5.50;;
66175;SDS011;52977;44.816;20.538;2023-03-23T14:29:43;11.38;;;5.40;;
66175;SDS011;52977;44.816;20.538;2023-03-23T14:32:12;11.82;;;5.22;;
66175;SDS011;52977;44.816;20.538;2023-03-23T14:34:42;7.03;;;4.60;;
66175;SDS011;52977;44.816;20.538;2023-03-23T14:37:13;8.27;;;4.25;;
66175;SDS011;52977;44.816;20.538;2023-03-23T14:39:43;10.10;;;4.72;;
66175;SDS011;52977;44.816;20.538;2023-03-23T14:44:40;7.88;;;4.70;;
66175;SDS011;52977;44.816;20.538;2023-03-23T14:47:42;9.00;;;5.20;;
66175;SDS011;52977;44.816;20.538;2023-03-23T14:50:04;9.05;;;4.63;;
66175;SDS011;52977;44.816;20.538;2023-03-23T14:52:35;7.90;;;4.90;;
66175;SDS011;52977;44.816;20.538;2023-03-23T14:55:16;8.43;;;4.05;;
66175;SDS011;52977;44.816;20.538;2023-03-23T14:57:43;9.18;;;4.80;;
66175;SDS011;52977;44.816;20.538;2023-03-23T15:02:40;9.30;;;5.05;;
66175;SDS011;52977;44.816;20.538;2023-03-23T15:05:10;12.52;;;5.15;;
66175;SDS011;52977;44.816;20.538;2023-03-23T15:07:41;9.52;;;5.20;;
66175;SDS011;52977;44.816;20.538;2023-03-23T15:10:14;9.40;;;5.22;;
66175;SDS011;52977;44.816;20.538;2023-03-23T15:12:44;8.70;;;5.10;;
66175;SDS011;52977;44.816;20.538;2023-03-23T15:15:25;9.02;;;5.38;;
66175;SDS011;52977;44.816;20.538;2023-03-23T15:17:51;9.52;;;4.88;;
66175;SDS011;52977;44.816;20.538;2023-03-23T15:20:24;9.80;;;4.65;;
66175;SDS011;52977;44.816;20.538;2023-03-23T15:22:50;8.73;;;4.80;;
66175;SDS011;52977;44.816;20.538;2023-03-23T15:25:18;8.25;;;4.90;;
66175;SDS011;52977;44.816;20.538;2023-03-23T15:27:58;9.82;;;5.07;;
66175;SDS011;52977;44.816;20.538;2023-03-23T15:30:33;8.07;;;4.65;;
66175;SDS011;52977;44.816;20.538;2023-03-23T15:33:03;8.43;;;4.80;;
66175;SDS011;52977;44.816;20.538;2023-03-23T15:35:35;7.97;;;4.45;;
66175;SDS011;52977;44.816;20.538;2023-03-23T15:38:04;6.43;;;4.18;;
66175;SDS011;52977;44.816;20.538;2023-03-23T15:40:37;7.37;;;4.67;;
66175;SDS011;52977;44.816;20.538;2023-03-23T15:43:20;8.23;;;5.00;;
66175;SDS011;52977;44.816;20.538;2023-03-23T15:46:00;8.13;;;4.93;;
66175;SDS011;52977;44.816;20.538;2023-03-23T15:48:33;9.63;;;4.70;;
66175;SDS011;52977;44.816;20.538;2023-03-23T15:51:10;9.63;;;5.25;;
66175;SDS011;52977;44.816;20.538;2023-03-23T15:53:38;9.90;;;5.20;;
66175;SDS011;52977;44.816;20.538;2023-03-23T15:56:05;8.63;;;4.72;;
66175;SDS011;52977;44.816;20.538;2023-03-23T15:58:32;8.35;;;5.35;;
66175;SDS011;52977;44.816;20.538;2023-03-23T16:00:59;9.40;;;5.20;;
66175;SDS011;52977;44.816;20.538;2023-03-23T16:03:33;9.38;;;5.40;;
66175;SDS011;52977;44.816;20.538;2023-03-23T16:06:05;10.32;;;5.38;;
66175;SDS011;52977;44.816;20.538;2023-03-23T16:08:31;8.30;;;5.28;;
66175;SDS011;52977;44.816;20.538;2023-03-23T16:10:57;10.50;;;5.55;;
66175;SDS011;52977;44.816;20.538;2023-03-23T16:13:24;11.77;;;5.63;;
66175;SDS011;52977;44.816;20.538;2023-03-23T16:15:52;8.73;;;4.72;;
66175;SDS011;52977;44.816;20.538;2023-03-23T16:18:19;10.50;;;5.07;;
66175;SDS011;52977;44.816;20.538;2023-03-23T16:20:49;8.07;;;4.82;;
66175;SDS011;52977;44.816;20.538;2023-03-23T16:23:15;9.30;;;5.63;;
66175;SDS011;52977;44.816;20.538;2023-03-23T16:25:41;10.07;;;6.40;;
66175;SDS011;52977;44.816;20.538;2023-03-23T16:28:08;11.05;;;7.03;;
66175;SDS011;52977;44.816;20.538;2023-03-23T16:30:37;12.35;;;6.82;;
66175;SDS011;52977;44.816;20.538;2023-03-23T16:33:03;12.13;;;7.65;;
66175;SDS011;52977;44.816;20.538;2023-03-23T16:35:30;13.35;;;7.88;;
66175;SDS011;52977;44.816;20.538;2023-03-23T16:37:56;11.48;;;7.00;;
66175;SDS011;52977;44.816;20.538;2023-03-23T16:40:22;13.60;;;7.95;;
66175;SDS011;52977;44.816;20.538;2023-03-23T16:42:49;12.40;;;7.40;;
66175;SDS011;52977;44.816;20.538;2023-03-23T16:45:16;13.63;;;7.10;;
66175;SDS011;52977;44.816;20.538;2023-03-23T16:47:42;11.43;;;6.70;;